Time;durP1;ratioP1;P1;durP2;ratioP2;P2;SDS_P1;SDS_P2;PMS_P1;PMS_P2;Temp;Humidity;BMP_temperature;BMP_pressure;BME280_temperature;BME280_humidity;BME280_pressure;Samples;Min_cycle;Max_cycle;Signal;HPM_P1;HPM_P2
2022/11/20 00:01:13;;;;;;;63.13;18.47;;;5.40;99.90;;;4.15;100.00;96844.41;5069440;28;20459;-75
2022/11/20 00:03:41;;;;;;;76.38;20.23;;;5.40;99.90;;;4.16;100.00;96843.41;5068742;28;20422;-74
2022/11/20 00:06:09;;;;;;;55.67;19.40;;;5.40;99.90;;;4.19;100.00;96843.75;5069721;28;20395;-74
2022/11/20 00:08:36;;;;;;;78.30;21.40;;;5.40;99.90;;;4.15;100.00;96845.22;5051225;28;20433;-75
2022/11/20 00:11:06;;;;;;;62.78;19.90;;;5.40;99.90;;;4.13;100.00;96844.66;5069360;28;20392;-75
2022/11/20 00:13:33;;;;;;;57.88;19.75;;;5.30;99.90;;;4.09;100.00;96840.88;5068472;28;20440;-75
2022/11/20 00:16:00;;;;;;;62.28;19.80;;;5.30;99.90;;;4.12;100.00;96842.25;5069445;28;20417;-75
2022/11/20 00:18:27;;;;;;;66.25;18.65;;;5.30;99.90;;;4.07;100.00;96835.06;5069521;28;20403;-74
2022/11/20 00:21:00;;;;;;;74.28;19.92;;;5.30;99.90;;;4.12;100.00;96843.06;5069371;28;20407;-74
2022/11/20 00:23:26;;;;;;;55.38;17.73;;;5.30;99.90;;;4.14;100.00;96840.19;5068729;28;20528;-75
2022/11/20 00:25:52;;;;;;;67.60;19.05;;;5.30;99.90;;;4.13;100.00;96841.25;5069523;28;20396;-75
2022/11/20 00:28:18;;;;;;;49.63;17.00;;;5.40;99.90;;;4.17;100.00;96840.56;5069492;28;20400;-76
2022/11/20 00:30:44;;;;;;;50.20;18.17;;;5.40;99.90;;;4.15;100.00;96828.69;5069421;28;20407;-75
2022/11/20 00:33:10;;;;;;;64.80;19.10;;;5.30;99.90;;;4.13;100.00;96836.81;5068415;28;20484;-75
2022/11/20 00:35:36;;;;;;;57.95;17.83;;;5.40;99.90;;;4.15;100.00;96836.56;5068832;28;20480;-75
2022/11/20 00:38:03;;;;;;;60.38;18.40;;;5.40;99.90;;;4.17;100.00;96843.19;5069375;28;20396;-74
2022/11/20 00:40:29;;;;;;;60.85;17.73;;;5.40;99.90;;;4.22;100.00;96834.63;5069237;28;20406;-74
2022/11/20 00:42:55;;;;;;;56.20;17.23;;;5.40;99.90;;;4.23;100.00;96838.84;5068331;28;20996;-74
2022/11/20 00:45:21;;;;;;;62.22;18.17;;;5.40;99.90;;;4.23;100.00;96834.41;5069245;28;20396;-75
2022/11/20 00:47:47;;;;;;;53.92;17.73;;;5.50;99.90;;;4.24;100.00;96827.34;5069327;28;20410;-75
2022/11/20 00:50:14;;;;;;;47.08;16.33;;;5.40;99.90;;;4.21;100.00;96836.47;5069269;28;20400;-76
2022/11/20 00:52:40;;;;;;;38.53;14.68;;;5.40;99.90;;;4.24;100.00;96833.41;5068869;28;20880;-75
2022/11/20 00:55:08;;;;;;;48.10;15.82;;;5.40;99.90;;;4.21;100.00;96839.06;5068926;28;20444;-75
2022/11/20 00:57:34;;;;;;;53.47;16.73;;;5.40;99.90;;;4.16;100.00;96836.34;5069195;28;20936;-75
2022/11/20 01:00:00;;;;;;;45.33;16.45;;;5.40;99.90;;;4.14;100.00;96832.34;5069207;28;20400;-75
2022/11/20 01:02:26;;;;;;;43.60;15.45;;;5.30;99.90;;;4.15;100.00;96836.56;5069118;28;20407;-75
2022/11/20 01:04:52;;;;;;;37.20;14.65;;;5.30;99.90;;;4.20;100.00;96839.31;5068221;28;20396;-75
2022/11/20 01:07:18;;;;;;;45.67;16.77;;;5.30;99.90;;;4.07;100.00;96835.06;5069143;28;20396;-75
2022/11/20 01:09:44;;;;;;;42.53;15.73;;;5.30;99.90;;;4.03;100.00;96833.91;5069170;28;20427;-75
2022/11/20 01:12:11;;;;;;;38.95;15.48;;;5.20;99.90;;;4.02;100.00;96834.13;5069091;28;20407;-75
2022/11/20 01:14:37;;;;;;;37.35;15.30;;;5.20;99.90;;;3.94;100.00;96837.84;5068118;28;20431;-75
2022/11/20 01:17:04;;;;;;;40.63;16.30;;;5.10;99.90;;;3.87;100.00;96837.16;5069038;28;20411;-75
2022/11/20 01:19:30;;;;;;;43.30;16.08;;;5.00;99.90;;;3.83;100.00;96839.41;5068867;28;20404;-75
2022/11/20 01:21:56;;;;;;;42.80;16.57;;;5.00;99.90;;;3.83;100.00;96842.00;5071439;28;20757;-75
2022/11/20 01:24:23;;;;;;;46.05;16.35;;;5.00;99.90;;;3.79;100.00;96842.69;5071614;28;20399;-75
2022/11/20 01:26:50;;;;;;;36.85;14.55;;;5.00;99.90;;;3.75;100.00;96841.56;5072540;28;20418;-75
2022/11/20 01:29:20;;;;;;;40.22;15.70;;;4.90;99.90;;;3.78;100.00;96852.38;5072456;28;20406;-75
2022/11/20 01:31:47;;;;;;;39.38;14.77;;;4.90;99.90;;;3.77;100.00;96855.19;5072280;28;20396;-75
2022/11/20 01:34:16;;;;;;;41.83;14.82;;;4.90;99.90;;;3.68;100.00;96853.91;5071201;28;20403;-75
2022/11/20 01:36:43;;;;;;;44.50;16.13;;;4.80;99.90;;;3.60;100.00;96856.84;5072266;28;20415;-75
2022/11/20 01:39:13;;;;;;;41.13;16.10;;;4.80;99.90;;;3.63;100.00;96848.53;5072271;28;20915;-75
2022/11/20 01:44:56;;;;;;;40.20;15.50;;;4.80;99.90;;;3.53;100.00;96851.69;5071246;28;20409;-74
2022/11/20 01:47:30;;;;;;;41.73;15.83;;;4.70;99.90;;;3.48;100.00;96846.28;5072060;28;20881;-74
2022/11/20 01:50:04;;;;;;;39.70;14.73;;;4.70;99.90;;;3.49;100.00;96847.91;5072032;28;20491;-74
2022/11/20 01:52:37;;;;;;;35.42;14.43;;;4.70;99.90;;;3.58;100.00;96851.00;5071887;28;20890;-75
2022/11/20 01:55:08;;;;;;;43.10;15.48;;;4.70;99.90;;;3.55;100.00;96856.69;5071204;28;20400;-74
2022/11/20 01:57:36;;;;;;;41.50;15.30;;;4.80;99.90;;;3.57;100.00;96849.41;5071981;28;20427;-74
2022/11/20 02:00:07;;;;;;;42.80;14.90;;;4.80;99.90;;;3.52;100.00;96852.69;5071914;28;20391;-74
2022/11/20 02:02:34;;;;;;;36.92;14.20;;;4.70;99.90;;;3.57;100.00;96852.84;5071740;28;20929;-74
2022/11/20 02:05:11;;;;;;;37.75;14.60;;;4.70;99.90;;;3.55;100.00;96857.47;5070894;28;20400;-73
2022/11/20 02:07:38;;;;;;;40.88;15.00;;;4.80;99.90;;;3.50;100.00;96852.91;5071849;28;20444;-74
2022/11/20 02:10:05;;;;;;;31.75;13.20;;;4.70;99.90;;;3.62;100.00;96854.78;5073937;28;20404;-74
2022/11/20 02:15:18;;;;;;;35.40;14.15;;;4.80;99.90;;;3.59;100.00;96857.84;5091797;28;20796;-74
2022/11/20 02:17:44;;;;;;;41.15;14.98;;;4.80;99.90;;;3.57;100.00;96852.84;5091819;28;20913;-74
2022/11/20 02:20:11;;;;;;;40.85;15.00;;;4.70;99.90;;;3.49;100.00;96850.50;5091536;28;20398;-74
2022/11/20 02:22:48;;;;;;;40.88;14.80;;;4.70;99.90;;;3.47;100.00;96858.56;5091491;28;20879;-74
2022/11/20 02:25:16;;;;;;;44.63;15.40;;;4.70;99.90;;;3.41;100.00;96856.03;5091517;28;20933;-74
2022/11/20 02:27:42;;;;;;;45.95;15.98;;;4.60;99.90;;;3.37;100.00;96863.53;5091615;28;20485;-74
2022/11/20 02:30:10;;;;;;;39.88;15.52;;;4.60;99.90;;;3.40;100.00;96865.69;5091408;28;20563;-75
2022/11/20 02:32:38;;;;;;;45.40;16.20;;;4.60;99.90;;;3.37;100.00;96862.72;5091014;28;20517;-75
2022/11/20 02:35:09;;;;;;;42.53;15.68;;;4.60;99.90;;;3.37;100.00;96868.75;5090349;28;20420;-74
2022/11/20 02:37:40;;;;;;;44.70;16.15;;;4.60;99.90;;;3.38;100.00;96864.34;5091352;28;20398;-74
2022/11/20 02:40:08;;;;;;;46.90;16.17;;;4.60;99.90;;;3.41;100.00;96861.25;5091368;28;20990;-74
2022/11/20 02:42:35;;;;;;;45.70;16.00;;;4.60;99.90;;;3.42;100.00;96874.13;5091135;28;20466;-74
2022/11/20 02:45:01;;;;;;;55.40;16.80;;;4.60;99.90;;;3.48;100.00;96860.19;5090319;28;20424;-74
2022/11/20 02:47:27;;;;;;;38.30;13.52;;;4.70;99.90;;;3.53;100.00;96856.13;5091276;28;20390;-75
2022/11/20 02:49:53;;;;;;;48.42;15.32;;;4.70;99.90;;;3.60;100.00;96864.69;5091012;28;20404;-74
2022/11/20 02:52:19;;;;;;;37.67;14.48;;;4.80;99.90;;;3.68;100.00;96864.38;5091042;28;20398;-74
2022/11/20 02:54:45;;;;;;;42.13;15.23;;;4.90;99.90;;;3.70;100.00;96857.91;5090140;28;20398;-75
2022/11/20 02:57:11;;;;;;;43.05;14.80;;;4.90;99.90;;;3.69;100.00;96856.28;5090963;28;20468;-74
2022/11/20 02:59:38;;;;;;;39.13;14.75;;;4.90;99.90;;;3.74;100.00;96863.50;5090977;28;20489;-74
2022/11/20 03:02:04;;;;;;;38.17;14.03;;;4.90;99.90;;;3.75;100.00;96867.72;5090879;28;20417;-74
2022/11/20 03:04:30;;;;;;;36.85;14.88;;;4.90;99.90;;;3.85;100.00;96868.78;5089941;28;20402;-75
2022/11/20 03:06:57;;;;;;;41.53;14.48;;;5.00;99.90;;;3.84;100.00;96864.56;5090836;28;20417;-74
2022/11/20 03:09:23;;;;;;;42.55;15.32;;;5.00;99.90;;;3.85;100.00;96865.38;5090761;28;20906;-74
2022/11/20 03:11:49;;;;;;;40.25;14.23;;;5.00;99.90;;;3.78;100.00;96865.44;5090642;28;20439;-74
2022/11/20 03:14:15;;;;;;;39.45;14.60;;;5.00;99.90;;;3.84;100.00;96856.72;5089652;28;20771;-74
2022/11/20 03:16:42;;;;;;;44.22;14.75;;;5.00;99.90;;;3.81;100.00;96861.59;5090551;28;20418;-74
2022/11/20 03:19:08;;;;;;;42.08;15.10;;;5.00;99.90;;;3.76;100.00;96853.63;5090659;28;20406;-74
2022/11/20 03:21:35;;;;;;;34.63;14.02;;;4.90;99.90;;;3.65;100.00;96859.59;5090440;28;20497;-74
2022/11/20 03:24:01;;;;;;;34.97;14.45;;;4.90;99.90;;;3.65;100.00;96854.34;5089566;28;20398;-74
2022/11/20 03:26:27;;;;;;;37.20;14.20;;;4.80;99.90;;;3.63;100.00;96848.53;5090515;28;20390;-74
2022/11/20 03:28:56;;;;;;;36.63;14.80;;;4.80;99.90;;;3.61;100.00;96850.59;5090342;28;20938;-75
2022/11/20 03:31:25;;;;;;;38.83;14.85;;;4.80;99.90;;;3.56;100.00;96839.97;5090349;28;20398;-74
2022/11/20 03:33:53;;;;;;;48.33;16.52;;;4.80;99.90;;;3.57;100.00;96839.75;5103686;22;20435;-74
2022/11/20 03:36:20;;;;;;;49.35;16.83;;;4.80;99.90;;;3.50;100.00;96847.69;5089183;28;20421;-75
2022/11/20 03:38:47;;;;;;;50.67;16.30;;;4.70;99.90;;;3.43;100.00;96846.97;5088584;28;20425;-75
2022/11/20 03:41:15;;;;;;;43.13;16.08;;;4.70;99.90;;;3.43;100.00;96843.53;5090198;28;20599;-75
2022/11/20 03:43:41;;;;;;;47.97;17.08;;;4.70;99.90;;;3.39;100.00;96837.13;5088636;28;20476;-75
2022/11/20 03:46:08;;;;;;;54.50;17.80;;;4.60;99.90;;;3.30;100.00;96836.66;5090102;28;20481;-75
2022/11/20 03:48:33;;;;;;;41.80;17.10;;;4.50;99.90;;;3.26;100.00;96839.91;5090348;28;20402;-76
2022/11/20 03:51:13;;;;;;;56.05;18.77;;;4.40;99.90;;;3.17;100.00;96839.38;5090190;28;20493;-75
2022/11/20 03:53:40;;;;;;;56.28;19.33;;;4.40;99.90;;;3.17;100.00;96835.97;5071212;28;20971;-75
2022/11/20 03:56:07;;;;;;;66.18;20.67;;;4.40;99.90;;;3.16;100.00;96842.25;5089873;28;20504;-74
2022/11/20 03:58:36;;;;;;;59.33;19.88;;;4.40;99.90;;;3.07;100.00;96841.72;5089928;28;20417;-75
2022/11/20 04:01:07;;;;;;;54.25;19.85;;;4.30;99.90;;;3.06;100.00;96837.50;5089831;28;20390;-75
2022/11/20 04:03:33;;;;;;;92.43;21.50;;;4.30;99.90;;;3.04;100.00;96839.53;5089088;28;20390;-75
2022/11/20 04:06:03;;;;;;;55.58;19.55;;;4.30;99.90;;;3.02;100.00;96838.94;5089944;28;20485;-75
2022/11/20 04:08:30;;;;;;;49.58;18.48;;;4.30;99.90;;;3.09;100.00;96835.25;5090021;28;20750;-75
2022/11/20 04:10:56;;;;;;;51.30;18.33;;;4.30;99.90;;;3.10;100.00;96830.81;5089873;28;20962;-75
2022/11/20 04:13:22;;;;;;;58.15;19.65;;;4.30;99.90;;;3.13;100.00;96829.59;5089060;28;20504;-75
2022/11/20 04:15:48;;;;;;;61.77;21.03;;;4.30;99.90;;;3.08;100.00;96828.41;5089632;28;20926;-74
2022/11/20 04:18:14;;;;;;;57.47;19.70;;;4.30;99.90;;;3.05;100.00;96828.84;5071699;28;20412;-75
2022/11/20 04:20:41;;;;;;;51.40;18.95;;;4.30;99.90;;;3.14;100.00;96836.41;5089682;28;20405;-75
2022/11/20 04:23:06;;;;;;;60.85;20.63;;;4.30;99.90;;;3.12;100.00;96831.41;5088925;28;20397;-75
2022/11/20 04:25:34;;;;;;;52.17;19.63;;;4.40;99.90;;;3.08;100.00;96825.78;5090012;28;20394;-75
2022/11/20 04:28:00;;;;;;;55.20;20.00;;;4.30;99.90;;;3.06;100.00;96824.44;5089884;28;20410;-75
2022/11/20 04:30:26;;;;;;;47.72;19.20;;;4.30;99.90;;;3.07;100.00;96826.03;5089510;28;20462;-75
2022/11/20 04:32:52;;;;;;;56.15;20.42;;;4.30;99.90;;;3.13;100.00;96830.41;5088846;28;20444;-75
2022/11/20 04:35:18;;;;;;;47.03;18.00;;;4.30;99.90;;;3.19;100.00;96821.66;5089404;28;20405;-76
2022/11/20 04:37:44;;;;;;;50.13;17.43;;;4.40;99.90;;;3.24;100.00;96827.03;5089743;28;20854;-77
2022/11/20 04:40:11;;;;;;;49.83;18.85;;;4.40;99.90;;;3.27;100.00;96824.00;5089516;28;20405;-75
2022/11/20 04:42:39;;;;;;;45.58;18.67;;;4.40;99.90;;;3.22;100.00;96820.44;5089365;28;20406;-75
2022/11/20 04:45:06;;;;;;;53.45;19.08;;;4.40;99.90;;;3.30;100.00;96825.38;5089153;28;20636;-75
2022/11/20 04:47:32;;;;;;;57.47;19.80;;;4.50;99.90;;;3.32;100.00;96828.56;5089572;28;20400;-75
2022/11/20 04:49:58;;;;;;;54.58;18.77;;;4.50;99.90;;;3.31;100.00;96829.56;5089516;28;20405;-76
2022/11/20 04:52:23;;;;;;;59.40;19.13;;;4.60;99.90;;;3.34;100.00;96818.69;5071251;28;20418;-75
2022/11/20 04:54:52;;;;;;;41.15;17.70;;;4.60;99.90;;;3.35;100.00;96817.66;5089579;28;20438;-75
2022/11/20 04:57:18;;;;;;;47.75;16.83;;;4.60;99.90;;;3.39;100.00;96813.59;5093238;28;20919;-75
2022/11/20 04:59:45;;;;;;;37.95;15.82;;;4.50;99.90;;;3.43;100.00;96818.19;5093262;28;20420;-75
2022/11/20 05:02:11;;;;;;;50.15;17.58;;;4.60;99.90;;;3.44;100.00;96814.56;5093119;28;20756;-75
2022/11/20 05:04:37;;;;;;;42.05;15.77;;;4.60;99.90;;;3.56;100.00;96817.22;5092262;28;20402;-76
2022/11/20 05:07:03;;;;;;;43.63;16.40;;;4.70;99.90;;;3.49;100.00;96813.88;5093259;28;20439;-75
2022/11/20 05:09:30;;;;;;;45.73;16.67;;;4.70;99.90;;;3.51;100.00;96819.69;5093065;28;20570;-75
2022/11/20 05:11:56;;;;;;;41.13;15.80;;;4.70;99.90;;;3.53;100.00;96822.91;5093012;28;20401;-75
2022/11/20 05:14:22;;;;;;;43.33;15.98;;;4.70;99.90;;;3.56;100.00;96817.22;5092112;28;20895;-75
2022/11/20 05:16:49;;;;;;;39.80;16.23;;;4.80;99.90;;;3.58;100.00;96815.19;5092811;28;20482;-75
2022/11/20 05:19:15;;;;;;;45.75;15.70;;;4.80;99.90;;;3.59;100.00;96823.84;5092842;28;20497;-75
2022/11/20 05:21:41;;;;;;;46.95;17.00;;;4.80;99.90;;;3.64;100.00;96816.09;5092756;28;20406;-75
2022/11/20 05:24:07;;;;;;;36.08;15.05;;;4.80;99.90;;;3.61;100.00;96825.19;5091836;28;20397;-75
2022/11/20 05:26:33;;;;;;;36.80;14.48;;;4.80;99.90;;;3.71;100.00;96825.47;5091342;28;21014;-75
2022/11/20 05:28:59;;;;;;;32.80;14.40;;;4.90;99.90;;;3.63;100.00;96817.13;5092884;28;20401;-75
2022/11/20 05:31:25;;;;;;;32.53;13.87;;;4.80;99.90;;;3.71;100.00;96816.81;5092530;28;20432;-75
2022/11/20 05:33:53;;;;;;;30.40;13.70;;;4.80;99.90;;;3.67;100.00;96826.94;5091626;28;20444;-75
2022/11/20 05:36:19;;;;;;;39.50;14.23;;;4.80;99.90;;;3.63;100.00;96812.69;5092335;28;20413;-75
2022/11/20 05:38:45;;;;;;;38.72;15.07;;;4.80;99.90;;;3.63;100.00;96817.94;5092546;28;20402;-75
2022/11/20 05:41:13;;;;;;;36.70;13.97;;;4.80;99.90;;;3.63;100.00;96820.53;5092371;28;20397;-75
2022/11/20 05:43:41;;;;;;;40.65;14.52;;;4.80;99.90;;;3.62;100.00;96815.53;5091669;28;20455;-76
2022/11/20 05:46:08;;;;;;;40.90;14.35;;;4.80;99.90;;;3.63;100.00;96814.50;5092442;28;20760;-75
2022/11/20 05:48:38;;;;;;;43.60;15.10;;;4.80;99.90;;;3.62;100.00;96818.94;5092449;28;20436;-75
2022/11/20 05:51:07;;;;;;;41.92;14.70;;;4.80;99.90;;;3.64;100.00;96821.34;5092378;28;20529;-75
2022/11/20 05:53:34;;;;;;;39.60;14.27;;;4.90;99.90;;;3.65;100.00;96820.31;5091497;28;20394;-75
2022/11/20 05:56:02;;;;;;;37.70;13.73;;;4.90;99.90;;;3.67;100.00;96819.09;5092299;28;20810;-75
2022/11/20 05:58:29;;;;;;;35.53;14.05;;;4.90;99.90;;;3.71;100.00;96822.84;5092205;28;20906;-74
2022/11/20 06:01:03;;;;;;;42.47;13.90;;;4.90;99.90;;;3.73;100.00;96827.88;5092328;28;20747;-75
2022/11/20 06:03:29;;;;;;;29.27;12.98;;;4.90;99.90;;;3.80;100.00;96818.13;5091357;28;20431;-75
2022/11/20 06:05:55;;;;;;;40.47;15.00;;;5.00;99.90;;;3.80;100.00;96832.00;5092070;28;20406;-75
2022/11/20 06:08:22;;;;;;;36.30;13.50;;;5.00;99.90;;;3.82;100.00;96821.31;5092490;28;20437;-74
2022/11/20 06:10:48;;;;;;;34.50;13.65;;;5.00;99.90;;;3.82;100.00;96829.19;5081931;28;20414;-75
2022/11/20 06:13:14;;;;;;;34.40;13.60;;;5.00;99.90;;;3.76;100.00;96827.44;5082261;28;20451;-75
2022/11/20 06:15:40;;;;;;;31.13;13.20;;;4.90;99.90;;;3.77;100.00;96829.81;5084697;28;20511;-75
2022/11/20 06:18:05;;;;;;;33.27;13.50;;;5.00;99.90;;;3.86;100.00;96828.50;5083302;28;20399;-76
2022/11/20 06:20:31;;;;;;;32.63;12.38;;;5.00;99.90;;;3.85;100.00;96818.25;5083107;28;20907;-75
2022/11/20 06:22:57;;;;;;;29.73;12.68;;;5.00;99.90;;;3.88;100.00;96817.81;5084348;28;20487;-76
2022/11/20 06:25:24;;;;;;;33.23;12.90;;;5.10;99.90;;;3.89;100.00;96822.03;5079986;28;20444;-75
2022/11/20 06:27:50;;;;;;;30.80;12.48;;;5.10;99.90;;;3.86;100.00;96817.22;5081757;28;20812;-75
2022/11/20 06:30:16;;;;;;;29.27;12.43;;;5.00;99.90;;;3.86;100.00;96812.78;5084614;28;20398;-73
2022/11/20 06:32:42;;;;;;;28.60;12.38;;;5.00;99.90;;;3.86;100.00;96804.94;5074571;28;20404;-73
2022/11/20 06:35:09;;;;;;;30.80;11.55;;;5.10;99.90;;;3.88;100.00;96813.38;5086004;28;20457;-73
2022/11/20 06:37:35;;;;;;;25.67;11.45;;;5.10;99.90;;;3.89;100.00;96804.50;5079703;28;20413;-73
2022/11/20 06:40:01;;;;;;;21.17;10.77;;;5.10;99.90;;;3.81;100.00;96804.00;5080462;28;20702;-74
2022/11/20 06:42:28;;;;;;;25.27;11.20;;;4.90;99.90;;;3.79;100.00;96809.47;5088046;28;20402;-73
2022/11/20 06:44:54;;;;;;;24.30;10.55;;;4.90;99.90;;;3.88;100.00;96809.97;5084652;28;20833;-75
2022/11/20 06:47:20;;;;;;;22.40;10.40;;;5.00;99.90;;;3.94;100.00;96813.50;5082568;28;20466;-74
2022/11/20 06:49:45;;;;;;;21.95;10.13;;;5.10;99.90;;;3.88;100.00;96809.97;5089907;28;20799;-76
2022/11/20 06:52:11;;;;;;;18.38;9.13;;;5.00;99.90;;;4.10;100.00;96811.06;5087508;28;20407;-74
2022/11/20 06:54:37;;;;;;;23.38;9.52;;;5.10;99.90;;;3.98;100.00;96807.59;5080641;28;20452;-77
2022/11/20 06:57:03;;;;;;;19.45;8.52;;;5.10;99.90;;;4.06;100.00;96809.88;5080044;28;20405;-76
2022/11/20 06:59:30;;;;;;;14.65;8.05;;;5.20;99.90;;;4.19;100.00;96814.16;5081750;28;20407;-76
2022/11/20 07:01:56;;;;;;;19.52;8.98;;;5.30;99.90;;;4.01;100.00;96819.44;5081903;28;20405;-76
2022/11/20 07:04:22;;;;;;;19.15;8.60;;;5.20;99.90;;;3.99;100.00;96824.09;5074606;28;20395;-76
2022/11/20 07:06:48;;;;;;;14.03;7.83;;;5.10;99.90;;;3.96;100.00;96825.34;5087037;28;20406;-75
2022/11/20 07:09:14;;;;;;;19.25;8.85;;;5.10;99.90;;;3.88;100.00;96821.22;5090558;28;20405;-75
2022/11/20 07:11:40;;;;;;;18.05;8.27;;;5.00;99.90;;;3.93;100.00;96823.16;5081266;28;20573;-76
2022/11/20 07:14:06;;;;;;;18.60;9.07;;;5.10;99.90;;;3.86;100.00;96818.03;5082272;28;20834;-76
2022/11/20 07:16:33;;;;;;;18.57;8.77;;;5.00;99.90;;;3.98;100.00;96814.66;5073791;28;20569;-76
2022/11/20 07:18:59;;;;;;;17.17;8.52;;;5.00;99.90;;;4.00;100.00;96823.88;5089593;28;20489;-75
2022/11/20 07:21:25;;;;;;;18.15;9.38;;;5.00;99.90;;;3.95;100.00;96817.72;5084256;28;20395;-76
2022/11/20 07:23:52;;;;;;;17.42;8.65;;;5.10;99.90;;;3.89;100.00;96822.03;5077266;28;20766;-76
2022/11/20 07:26:19;;;;;;;18.90;8.45;;;5.10;99.90;;;3.90;100.00;96831.47;5090231;28;20397;-74
2022/11/20 07:28:45;;;;;;;17.07;8.27;;;5.10;99.90;;;3.91;100.00;96827.81;5090480;28;20451;-73
2022/11/20 07:31:12;;;;;;;19.80;8.48;;;5.00;99.90;;;3.79;100.00;96833.03;5090291;28;20402;-73
2022/11/20 07:33:39;;;;;;;14.85;8.02;;;4.90;99.90;;;3.78;100.00;96836.66;5088429;28;20452;-73
2022/11/20 07:36:06;;;;;;;18.50;9.23;;;4.90;99.90;;;3.79;100.00;96833.03;5089964;28;20897;-72
2022/11/20 07:38:32;;;;;;;17.73;8.50;;;5.00;99.90;;;3.78;100.00;96833.25;5088153;28;20504;-73
2022/11/20 07:40:58;;;;;;;18.70;8.90;;;4.90;99.90;;;3.76;100.00;96838.69;5083375;28;20995;-73
2022/11/20 07:43:25;;;;;;;18.33;9.05;;;4.90;99.90;;;3.83;100.00;96838.63;5087497;28;20421;-73
2022/11/20 07:45:50;;;;;;;20.75;8.43;;;5.00;99.90;;;3.92;100.00;96837.28;5090115;28;20423;-73
2022/11/20 07:48:16;;;;;;;15.55;7.88;;;5.00;99.90;;;3.89;100.00;96840.34;5072146;28;20406;-73
2022/11/20 07:50:44;;;;;;;19.10;8.33;;;5.10;99.90;;;3.89;100.00;96838.53;5089959;28;20944;-74
2022/11/20 07:53:09;;;;;;;19.77;8.27;;;5.10;99.90;;;3.91;100.00;96842.75;5089159;28;20414;-74
2022/11/20 07:55:36;;;;;;;18.67;7.97;;;5.00;99.90;;;4.00;100.00;96838.78;5089881;28;20410;-74
2022/11/20 07:58:01;;;;;;;19.33;8.43;;;5.20;99.90;;;4.16;100.00;96838.16;5089976;28;20433;-74
2022/11/20 08:00:27;;;;;;;15.93;7.53;;;5.30;99.90;;;4.29;100.00;96844.00;5082782;28;20438;-81
2022/11/20 08:02:54;;;;;;;16.83;7.07;;;5.40;99.90;;;4.51;100.00;96852.13;5074691;28;20430;-75
2022/11/20 08:05:20;;;;;;;14.90;6.53;;;5.50;99.90;;;4.42;100.00;96850.88;5072053;28;20818;-75
2022/11/20 08:07:47;;;;;;;14.63;6.90;;;5.50;99.90;;;4.39;100.00;96843.47;5090147;28;20444;-76
2022/11/20 08:10:16;;;;;;;10.57;6.32;;;5.50;99.90;;;4.36;100.00;96848.38;5059555;28;20500;-76
2022/11/20 08:15:31;;;;;;;12.85;6.30;;;5.50;99.90;;;4.55;100.00;96860.34;5074458;28;20489;-72
2022/11/20 08:18:03;;;;;;;12.80;6.10;;;5.70;99.90;;;4.67;100.00;96853.28;5082013;28;20413;-74
2022/11/20 08:20:29;;;;;;;12.70;5.85;;;5.80;99.90;;;4.67;100.00;96864.59;5080990;28;20501;-72
2022/11/20 08:23:00;;;;;;;9.13;5.40;;;5.80;99.90;;;4.82;100.00;96863.34;5080700;28;20418;-74
2022/11/20 08:25:27;;;;;;;10.50;5.75;;;5.80;99.90;;;4.83;100.00;96865.75;5086382;28;20429;-73
2022/11/20 08:27:53;;;;;;;12.45;5.30;;;5.90;99.90;;;4.72;100.00;96863.91;5089205;28;20463;-73
2022/11/20 08:30:19;;;;;;;8.27;4.93;;;5.80;99.90;;;4.81;100.00;96865.16;5087334;28;21630;-72
2022/11/20 08:32:45;;;;;;;10.32;5.30;;;5.90;99.90;;;4.69;100.00;96869.59;5090170;28;20500;-73
2022/11/20 08:35:11;;;;;;;10.82;4.97;;;5.80;99.90;;;4.81;100.00;96874.88;5086430;28;20430;-73
2022/11/20 08:37:41;;;;;;;8.27;4.85;;;5.80;99.90;;;4.93;100.00;96865.19;5091372;28;20414;-73
2022/11/20 08:40:11;;;;;;;10.82;5.15;;;6.00;99.90;;;4.87;100.00;96868.72;5089321;28;20450;-72
2022/11/20 08:42:37;;;;;;;5.88;4.10;;;5.90;99.90;;;5.06;100.00;96868.38;5083928;28;20441;-73
2022/11/20 08:45:04;;;;;;;8.27;4.43;;;6.00;99.90;;;5.26;100.00;96869.88;5082025;28;20998;-73
2022/11/20 08:47:30;;;;;;;7.45;4.38;;;6.30;99.90;;;5.33;100.00;96868.72;5086835;28;20415;-73
2022/11/20 08:49:56;;;;;;;6.72;3.97;;;6.40;99.90;;;5.41;100.00;96870.97;5092459;28;20436;-72
2022/11/20 08:52:22;;;;;;;12.33;4.00;;;6.50;99.90;;;5.55;100.00;96863.66;5093389;28;20398;-72
2022/11/20 08:54:48;;;;;;;5.85;3.45;;;6.60;99.90;;;5.77;100.00;96862.00;5092628;28;20421;-73
2022/11/20 08:57:15;;;;;;;4.75;3.03;;;6.80;99.90;;;5.90;100.00;96866.19;5093533;28;20414;-73
2022/11/20 08:59:41;;;;;;;4.47;2.90;;;6.90;99.90;;;5.91;100.00;96872.25;5090287;28;20489;-73
2022/11/20 09:02:08;;;;;;;5.00;3.00;;;6.90;99.90;;;5.86;100.00;96872.13;5089413;28;20489;-73
2022/11/20 09:04:35;;;;;;;4.20;2.70;;;6.80;99.90;;;5.88;100.00;96867.47;5094309;28;20946;-74
2022/11/20 09:07:01;;;;;;;3.55;2.40;;;6.80;99.90;;;5.83;100.00;96883.91;5113445;28;20388;-74
2022/11/20 09:09:27;;;;;;;3.92;2.70;;;6.80;99.90;;;5.70;100.00;96874.47;5088203;28;20412;-74
2022/11/20 09:11:53;;;;;;;3.28;2.58;;;6.80;99.90;;;5.90;100.00;96883.78;5092871;28;20463;-73
2022/11/20 09:14:21;;;;;;;3.10;2.40;;;6.90;99.90;;;5.93;100.00;96880.72;5092029;28;20489;-73
2022/11/20 09:16:47;;;;;;;3.38;2.20;;;6.90;99.90;;;5.74;100.00;96886.09;5092904;28;20466;-74
2022/11/20 09:19:13;;;;;;;4.25;2.30;;;6.80;99.90;;;5.80;100.00;96889.59;5088407;28;20903;-74
2022/11/20 09:21:39;;;;;;;3.15;2.33;;;6.80;99.90;;;5.87;100.00;96887.63;5090701;28;20418;-76
2022/11/20 09:24:06;;;;;;;3.65;2.20;;;6.80;99.90;;;5.68;100.00;96901.97;5091875;28;20404;-75
2022/11/20 09:26:32;;;;;;;2.53;2.30;;;6.70;99.90;;;5.77;100.00;96888.25;5091574;28;20417;-74
2022/11/20 09:28:58;;;;;;;4.10;2.15;;;6.80;99.90;;;5.78;100.00;96892.47;5085273;28;20899;-76
2022/11/20 09:31:26;;;;;;;4.05;2.00;;;6.70;99.90;;;5.83;100.00;96894.41;5092417;28;20402;-76
2022/11/20 09:33:52;;;;;;;2.05;1.85;;;6.80;99.90;;;5.95;100.00;96897.81;5091042;28;20494;-75
2022/11/20 09:36:18;;;;;;;2.78;1.90;;;6.90;99.90;;;5.80;100.00;96894.84;5371694;22;20433;-78
2022/11/20 09:38:45;;;;;;;2.08;1.83;;;6.80;99.90;;;5.73;100.00;96902.06;5090953;28;20911;-79
2022/11/20 09:41:49;;;;;;;3.65;1.80;;;6.80;99.90;;;5.66;100.00;96906.66;5090723;28;20475;-78
2022/11/20 09:44:43;;;;;;;2.13;1.73;;;6.70;99.90;;;5.87;100.00;96911.28;5046989;28;20556;-79
2022/11/20 09:47:20;;;;;;;1.65;1.45;;;6.80;99.90;;;5.80;100.00;96915.88;5072217;28;20455;-79
2022/11/20 09:50:05;;;;;;;1.85;1.60;;;6.80;99.90;;;5.75;100.00;96916.56;5072134;28;20503;-79
2022/11/20 09:52:44;;;;;;;2.92;1.63;;;6.80;99.90;;;5.74;100.00;96912.34;5072004;28;20877;-82
2022/11/20 09:55:14;;;;;;;1.50;1.40;;;6.80;99.90;;;5.61;100.00;96917.84;5053913;28;20512;-74
2022/11/20 09:57:44;;;;;;;2.72;1.70;;;6.70;99.90;;;5.69;100.00;96909.63;5072060;28;20803;-75
2022/11/20 10:00:13;;;;;;;1.58;1.38;;;6.70;99.90;;;5.77;100.00;96909.28;5072570;28;20403;-75
2022/11/20 10:02:46;;;;;;;1.50;1.40;;;6.80;99.90;;;5.79;100.00;96907.19;5070712;28;20446;-75
2022/11/20 10:05:18;;;;;;;2.40;1.50;;;6.70;99.90;;;5.59;100.00;96911.22;5071703;28;21027;-75
2022/11/20 10:07:55;;;;;;;1.55;1.45;;;6.70;99.90;;;5.51;100.00;96917.63;5071886;28;20431;-76
2022/11/20 10:10:30;;;;;;;1.90;1.50;;;6.50;99.90;;;5.56;100.00;96909.09;5071054;28;20456;-75
2022/11/20 10:13:16;;;;;;;1.77;1.50;;;6.60;99.90;;;5.69;100.00;96916.69;5068619;28;20472;-76
2022/11/20 10:15:58;;;;;;;2.38;1.70;;;6.70;99.90;;;5.64;100.00;96924.47;5069544;28;21079;-75
2022/11/20 10:18:42;;;;;;;2.38;1.90;;;6.70;99.90;;;5.80;100.00;96918.50;5070477;28;20460;-79
2022/11/20 10:21:23;;;;;;;2.15;1.80;;;6.80;99.90;;;5.64;100.00;96927.09;5071003;28;20498;-79
2022/11/20 10:24:16;;;;;;;5.68;1.88;;;6.80;99.90;;;5.65;100.00;96929.47;5052504;28;20491;-79
2022/11/20 10:26:52;;;;;;;3.83;1.90;;;6.70;99.90;;;5.48;100.00;96928.59;5071456;28;20460;-77